Time;durP1;ratioP1;P1;durP2;ratioP2;P2;SDS_P1;SDS_P2;PMS_P1;PMS_P2;Temp;Humidity;BMP_temperature;BMP_pressure;BME280_temperature;BME280_humidity;BME280_pressure;Samples;Min_cycle;Max_cycle;Signal;HPM_P1;HPM_P2
2023/01/04 00:01:24;;;;;;;17.30;10.98;;;;;;;2.55;100.00;97555.25;5010495;28;20045;-79
2023/01/04 00:03:51;;;;;;;16.67;10.60;;;;;;;2.65;100.00;97552.78;5010861;28;20401;-80
2023/01/04 00:06:19;;;;;;;19.15;11.55;;;;;;;2.75;100.00;97552.16;5012315;28;20042;-80
2023/01/04 00:08:45;;;;;;;16.73;11.13;;;;;;;2.84;100.00;97550.75;5012186;28;20552;-80
2023/01/04 00:11:14;;;;;;;15.70;10.20;;;;;;;2.77;99.65;97553.59;5009747;28;20209;-79
2023/01/04 00:13:41;;;;;;;15.50;10.10;;;;;;;2.73;99.20;97544.34;5011038;28;20046;-78
2023/01/04 00:16:12;;;;;;;14.50;9.63;;;;;;;2.73;98.70;97543.53;5010962;28;20052;-79
2023/01/04 00:18:39;;;;;;;13.88;9.02;;;;;;;2.73;98.55;97540.84;5011686;28;20064;-79
2023/01/04 00:21:08;;;;;;;14.65;9.80;;;;;;;2.77;98.49;97545.50;5010006;28;20050;-79
2023/01/04 00:23:35;;;;;;;15.68;9.75;;;;;;;2.85;98.44;97531.66;5010492;28;20046;-79
2023/01/04 00:26:02;;;;;;;15.30;10.52;;;;;;;2.87;98.27;97537.66;5010091;28;20062;-79
2023/01/04 00:28:28;;;;;;;15.35;10.27;;;;;;;2.85;97.92;97536.22;5007152;28;20061;-80
2023/01/04 00:30:55;;;;;;;16.20;10.00;;;;;;;2.85;97.45;97530.84;4991085;28;20085;-79
2023/01/04 00:33:23;;;;;;;15.73;10.38;;;;;;;2.73;96.68;97538.97;4991866;28;20042;-79
2023/01/04 00:35:49;;;;;;;14.93;9.43;;;;;;;2.71;96.39;97533.00;4994656;28;20046;-80
2023/01/04 00:38:16;;;;;;;14.32;9.57;;;;;;;2.72;95.94;97521.19;4994320;28;20110;-81
2023/01/04 00:40:42;;;;;;;13.13;8.70;;;;;;;2.72;95.74;97521.19;4994064;28;20058;-78
2023/01/04 00:43:09;;;;;;;13.95;9.35;;;;;;;2.74;96.13;97516.38;5011178;28;20050;-79
2023/01/04 00:45:35;;;;;;;17.67;10.18;;;;;;;2.73;96.72;97517.44;5014045;28;20041;-80
2023/01/04 00:48:02;;;;;;;17.27;10.13;;;;;;;2.77;97.27;97515.09;5013371;28;20046;-80
2023/01/04 00:50:29;;;;;;;13.88;10.52;;;;;;;2.81;97.67;97508.16;5014473;28;20045;-80
2023/01/04 00:52:56;;;;;;;14.10;9.80;;;;;;;2.82;98.41;97510.66;5013949;28;20050;-79
2023/01/04 00:55:22;;;;;;;13.95;9.45;;;;;;;2.78;98.74;97517.56;5020500;28;20401;-81
2023/01/04 00:57:49;;;;;;;16.75;10.23;;;;;;;2.76;98.91;97514.25;5014936;28;20593;-79
2023/01/04 01:00:16;;;;;;;14.57;9.70;;;;;;;2.68;99.19;97509.28;5014257;28;20049;-79
2023/01/04 01:02:42;;;;;;;13.77;9.88;;;;;;;2.66;99.50;97516.75;5014550;28;20408;-80
2023/01/04 01:05:09;;;;;;;16.35;10.13;;;;;;;2.59;100.00;97499.94;5016774;28;20054;-80
2023/01/04 01:07:37;;;;;;;14.90;10.05;;;;;;;2.50;100.00;97496.00;5025969;28;20381;-78
2023/01/04 01:10:05;;;;;;;15.63;10.05;;;;;;;2.45;100.00;97487.81;5015194;28;20050;-78
2023/01/04 01:12:32;;;;;;;15.77;10.32;;;;;;;2.42;100.00;97488.31;5012459;28;20053;-78
2023/01/04 01:14:59;;;;;;;17.08;10.88;;;;;;;2.35;100.00;97489.28;5004827;28;20490;-79
2023/01/04 01:17:25;;;;;;;17.40;10.98;;;;;;;2.30;100.00;97497.22;4997129;28;20053;-79
2023/01/04 01:19:53;;;;;;;17.25;10.73;;;;;;;2.26;100.00;97496.06;4997467;28;20046;-79
2023/01/04 01:22:20;;;;;;;17.92;10.65;;;;;;;2.25;100.00;97499.00;4997301;28;20046;-78
2023/01/04 01:24:48;;;;;;;20.42;11.43;;;;;;;2.18;100.00;97504.47;4997818;28;20051;-79
2023/01/04 01:27:14;;;;;;;17.30;11.20;;;;;;;2.18;100.00;97499.09;4996966;28;20046;-79
2023/01/04 01:29:41;;;;;;;22.45;12.13;;;;;;;2.11;100.00;97501.13;4998873;28;20038;-80
2023/01/04 01:32:08;;;;;;;18.05;11.05;;;;;;;2.07;100.00;97498.06;4999420;28;20498;-78
2023/01/04 01:34:34;;;;;;;18.52;10.95;;;;;;;2.04;100.00;97511.19;5003931;28;20042;-79
2023/01/04 01:37:02;;;;;;;19.52;12.15;;;;;;;2.00;100.00;97512.69;5003962;28;20069;-79
2023/01/04 01:39:29;;;;;;;19.73;11.50;;;;;;;1.96;100.00;97506.16;5004929;28;20108;-79
2023/01/04 01:41:58;;;;;;;20.92;11.82;;;;;;;1.94;100.00;97519.00;5015284;28;20072;-79
2023/01/04 01:44:57;;;;;;;22.20;12.10;;;;;;;1.91;100.00;97514.09;5013752;28;20494;-79
2023/01/04 01:47:26;;;;;;;18.58;11.65;;;;;;;1.88;100.00;97514.53;5019177;28;20046;-79
2023/01/04 01:49:54;;;;;;;21.42;12.32;;;;;;;1.88;100.00;97514.53;5022641;28;20034;-79
2023/01/04 01:52:26;;;;;;;20.85;11.25;;;;;;;1.89;100.00;97513.53;5012759;28;20065;-80
2023/01/04 01:54:56;;;;;;;28.30;12.75;;;;;;;1.90;100.00;97521.34;5005984;28;20054;-77
2023/01/04 01:57:31;;;;;;;25.83;11.75;;;;;;;1.89;100.00;97522.41;5018270;28;20046;-79
2023/01/04 02:00:00;;;;;;;28.98;10.55;;;;;;;1.86;100.00;97527.41;5008585;28;20057;-79
2023/01/04 02:02:27;;;;;;;26.02;10.55;;;;;;;1.82;100.00;97519.81;4992489;28;20042;-79
2023/01/04 02:04:55;;;;;;;20.60;11.30;;;;;;;1.78;100.00;97515.97;4985035;28;20047;-79
2023/01/04 02:07:26;;;;;;;18.48;10.90;;;;;;;1.77;100.00;97511.63;4992052;28;20057;-78
2023/01/04 02:09:53;;;;;;;21.20;12.45;;;;;;;1.75;100.00;97502.19;4991153;28;20043;-77
2023/01/04 02:12:20;;;;;;;24.73;11.63;;;;;;;1.73;100.00;97499.75;4991511;28;20042;-79
2023/01/04 02:14:51;;;;;;;22.23;11.45;;;;;;;1.74;100.00;97497.88;4991963;28;20042;-79
2023/01/04 02:17:30;;;;;;;21.85;11.52;;;;;;;1.72;100.00;97498.13;4991212;28;20042;-78
2023/01/04 02:20:24;;;;;;;22.20;10.93;;;;;;;1.68;100.00;97488.06;4991853;28;20054;-79
2023/01/04 02:23:27;;;;;;;21.83;11.18;;;;;;;1.63;100.00;97485.25;4991126;28;20042;-79
2023/01/04 02:26:34;;;;;;;24.27;11.55;;;;;;;1.49;100.00;97484.66;4987901;28;20054;-78
2023/01/04 02:29:23;;;;;;;23.55;11.02;;;;;;;1.49;100.00;97484.66;4998539;28;20050;-79
2023/01/04 02:31:54;;;;;;;32.88;11.02;;;;;;;1.46;100.00;97482.44;4991167;28;20490;-79
2023/01/04 02:34:28;;;;;;;35.55;11.38;;;;;;;1.42;100.00;97484.78;4991188;28;20050;-78
2023/01/04 02:36:58;;;;;;;29.08;11.30;;;;;;;1.23;100.00;97492.09;4984045;28;20058;-78
2023/01/04 02:39:38;;;;;;;21.58;9.20;;;;;;;0.78;100.00;97495.25;4990783;28;20050;-81
2023/01/04 02:42:12;;;;;;;29.98;10.82;;;;;;;0.47;100.00;97500.78;4984213;28;20046;-80
2023/01/04 02:44:56;;;;;;;38.28;10.93;;;;;;;0.60;100.00;97497.94;4991092;28;20069;-77
2023/01/04 02:50:30;;;;;;;24.08;9.20;;;;;;;0.80;100.00;97502.25;4985387;28;20149;-79
2023/01/04 02:52:57;;;;;;;35.70;10.38;;;;;;;0.90;100.00;97502.50;4991048;28;20566;-79
2023/01/04 02:55:31;;;;;;;26.30;8.95;;;;;;;0.98;100.00;97499.47;4990360;28;20049;-79
2023/01/04 02:58:05;;;;;;;39.85;10.05;;;;;;;1.06;100.00;97495.69;4991319;28;20065;-80
2023/01/04 03:06:32;;;;;;;53.35;12.45;;;;;;;0.86;100.00;97480.69;4989979;28;20508;-79
2023/01/04 03:09:05;;;;;;;130.38;16.08;;;;;;;0.91;100.00;97474.63;4990695;28;20046;-79
2023/01/04 03:14:26;;;;;;;146.50;17.20;;;;;;;0.84;100.00;97465.88;4986271;28;20057;-78
2023/01/04 03:16:55;;;;;;;182.45;21.17;;;;;;;0.74;100.00;97456.53;4982585;28;20046;-79
2023/01/04 03:35:21;;;;;;;139.50;19.13;;;;;;;0.82;100.00;97457.22;4984204;28;20038;-80
2023/01/04 03:36:09;;;;;;;102.35;18.33;;;;;;;1.37;100.00;97470.44;4990880;28;20058;-80
2023/01/04 03:50:17;;;;;;;41.28;16.20;;;;;;;1.67;100.00;97444.28;4968475;28;20058;-78
2023/01/04 03:52:47;;;;;;;47.03;16.15;;;;;;;1.87;100.00;97433.16;4975096;28;20042;-79
2023/01/04 03:55:15;;;;;;;46.92;17.52;;;;;;;1.82;100.00;97431.19;4990607;28;20526;-80
2023/01/04 03:57:42;;;;;;;58.10;18.75;;;;;;;2.00;100.00;97426.72;4990758;28;20053;-79
2023/01/04 04:00:12;;;;;;;50.60;17.75;;;;;;;2.06;100.00;97431.16;4990664;28;20446;-79
2023/01/04 04:02:40;;;;;;;53.63;19.55;;;;;;;2.09;100.00;97425.31;4990920;28;20096;-79
2023/01/04 04:10:38;;;;;;;51.38;16.38;;;;;;;2.62;100.00;97424.19;4994498;28;20522;-80
2023/01/04 04:13:04;;;;;;;43.08;16.35;;;;;;;2.66;100.00;97419.94;4994236;28;20050;-79
2023/01/04 04:15:31;;;;;;;48.50;16.13;;;;;;;2.69;100.00;97419.47;4994565;28;20050;-80
2023/01/04 04:17:57;;;;;;;55.83;17.10;;;;;;;2.75;100.00;97406.94;4993717;28;20042;-79
2023/01/04 04:20:24;;;;;;;44.28;16.52;;;;;;;2.86;100.00;97414.13;4993435;28;20130;-79
2023/01/04 04:22:50;;;;;;;50.33;17.45;;;;;;;2.93;100.00;97408.59;4994239;28;20498;-79
2023/01/04 04:25:18;;;;;;;58.65;16.73;;;;;;;2.99;100.00;97411.13;4994445;28;20061;-79
2023/01/04 04:27:45;;;;;;;56.40;16.55;;;;;;;3.07;100.00;97407.19;4993857;28;20043;-79
2023/01/04 04:30:12;;;;;;;46.45;16.20;;;;;;;3.03;100.00;97409.59;4993937;28;20046;-79
2023/01/04 04:32:38;;;;;;;59.05;17.00;;;;;;;3.07;100.00;97409.91;4993875;28;20046;-79
2023/01/04 04:35:06;;;;;;;44.72;15.48;;;;;;;3.06;100.00;97406.38;4993555;28;20053;-79
2023/01/04 04:37:33;;;;;;;46.65;15.00;;;;;;;3.06;100.00;97402.88;4994182;28;20494;-79
2023/01/04 04:40:00;;;;;;;46.30;14.60;;;;;;;3.09;100.00;97397.84;4993823;28;20050;-79
2023/01/04 04:42:27;;;;;;;41.45;14.77;;;;;;;3.05;100.00;97401.25;4993478;28;20505;-80
2023/01/04 04:44:53;;;;;;;54.08;14.80;;;;;;;3.01;100.00;97406.31;4985262;28;20046;-79
2023/01/04 04:47:20;;;;;;;45.15;14.07;;;;;;;2.91;100.00;97405.31;4993542;28;20062;-80
2023/01/04 04:49:46;;;;;;;51.67;14.45;;;;;;;2.90;100.00;97399.13;4993741;28;20042;-79
2023/01/04 04:52:13;;;;;;;36.42;12.68;;;;;;;2.91;100.00;97389.19;4993029;28;20544;-80
2023/01/04 04:54:39;;;;;;;39.30;13.15;;;;;;;2.90;100.00;97387.56;4993233;28;20046;-79
2023/01/04 04:57:06;;;;;;;44.55;13.52;;;;;;;2.85;100.00;97389.09;4993293;28;20043;-79
2023/01/04 04:59:35;;;;;;;34.28;12.32;;;;;;;2.82;100.00;97386.91;4993748;28;20081;-78
2023/01/04 05:02:01;;;;;;;39.67;12.10;;;;;;;2.71;100.00;97390.44;4993478;28;20112;-79
2023/01/04 05:04:28;;;;;;;45.47;12.77;;;;;;;2.53;100.00;97394.19;4993109;28;20529;-80
2023/01/04 05:06:54;;;;;;;34.22;11.27;;;;;;;2.49;100.00;97389.53;4993276;28;20521;-79
2023/01/04 05:09:21;;;;;;;34.30;10.90;;;;;;;2.40;100.00;97390.94;4993006;28;20042;-79
2023/01/04 05:14:32;;;;;;;39.85;11.05;;;;;;;2.41;100.00;97389.91;5016154;28;20052;-80
2023/01/04 05:16:59;;;;;;;33.63;10.52;;;;;;;2.38;100.00;97387.69;5000505;28;20613;-79
2023/01/04 05:19:26;;;;;;;39.70;11.25;;;;;;;2.34;100.00;97388.16;4992215;28;20135;-80
2023/01/04 05:21:52;;;;;;;43.58;10.43;;;;;;;2.28;100.00;97386.44;4984563;28;20426;-79
2023/01/04 05:24:19;;;;;;;38.75;10.98;;;;;;;2.28;100.00;97385.63;4992888;28;20048;-80
2023/01/04 05:26:46;;;;;;;85.63;13.80;;;;;;;2.27;100.00;97382.13;4989705;28;20043;-79
2023/01/04 05:30:49;;;;;;;29.15;10.02;;;;;;;2.27;100.00;97387.50;4988112;28;20046;-80
2023/01/04 05:32:00;;;;;;;30.70;9.57;;;;;;;2.22;100.00;97395.47;4992621;28;20502;-79
2023/01/04 05:34:26;;;;;;;35.72;9.85;;;;;;;2.17;100.00;97387.31;4993210;28;20409;-79
2023/01/04 05:36:52;;;;;;;39.25;10.50;;;;;;;2.10;100.00;97386.63;4985461;28;20053;-79
2023/01/04 05:39:20;;;;;;;29.42;9.00;;;;;;;2.11;100.00;97390.13;4992261;28;20049;-79
2023/01/04 05:44:31;;;;;;;27.98;8.13;;;;;;;1.98;100.00;97380.47;4992738;28;20560;-79
2023/01/04 05:46:57;;;;;;;26.50;8.13;;;;;;;1.91;100.00;97375.22;4993969;28;20057;-79
2023/01/04 05:49:25;;;;;;;21.67;8.10;;;;;;;1.85;100.00;97381.56;4994020;28;20039;-79
2023/01/04 05:51:51;;;;;;;33.05;8.35;;;;;;;1.84;100.00;97379.94;5000318;28;20046;-80
2023/01/04 05:54:18;;;;;;;18.45;8.07;;;;;;;1.81;100.00;97383.91;4998580;28;20046;-79
2023/01/04 05:56:45;;;;;;;33.13;8.63;;;;;;;1.77;100.00;97381.91;4999529;28;20050;-79
2023/01/04 05:59:11;;;;;;;22.58;8.68;;;;;;;1.77;100.00;97390.78;4994883;28;20057;-78
2023/01/04 06:01:38;;;;;;;31.40;9.68;;;;;;;1.84;100.00;97396.03;4994325;28;20054;-79
2023/01/04 06:04:04;;;;;;;21.60;8.60;;;;;;;1.88;100.00;97401.75;4992976;28;20050;-78
2023/01/04 06:06:32;;;;;;;25.70;9.07;;;;;;;1.95;100.00;97399.75;4992843;28;20045;-78
2023/01/04 06:08:58;;;;;;;28.38;8.75;;;;;;;2.03;100.00;97402.88;4992913;28;20048;-79
2023/01/04 06:11:25;;;;;;;21.45;9.23;;;;;;;2.01;100.00;97422.97;4992505;28;20042;-78
2023/01/04 06:13:51;;;;;;;23.05;8.80;;;;;;;1.89;100.00;97420.31;4993030;28;20121;-79
2023/01/04 06:16:18;;;;;;;26.73;9.27;;;;;;;2.07;100.00;97417.47;4992192;28;20046;-79
2023/01/04 06:18:44;;;;;;;22.58;8.32;;;;;;;2.19;100.00;97417.44;4993203;28;20042;-80
2023/01/04 06:21:13;;;;;;;12.25;7.88;;;;;;;2.31;100.00;97412.84;4992578;28;20061;-79
2023/01/04 06:23:41;;;;;;;15.55;9.35;;;;;;;2.34;100.00;97404.28;4992659;28;20050;-79
2023/01/04 06:26:07;;;;;;;13.32;7.93;;;;;;;2.44;100.00;97408.25;4993614;28;20046;-79
2023/01/04 06:28:34;;;;;;;13.48;8.13;;;;;;;2.50;100.00;97404.59;4994144;28;20435;-78
2023/01/04 06:31:04;;;;;;;14.45;7.93;;;;;;;2.53;100.00;97404.13;4988977;28;20593;-79
2023/01/04 06:33:31;;;;;;;17.20;8.00;;;;;;;2.60;100.00;97410.16;5010015;28;20057;-80
2023/01/04 06:35:58;;;;;;;21.23;8.05;;;;;;;2.61;100.00;97407.25;5012489;28;20485;-79
2023/01/04 06:38:26;;;;;;;14.15;7.28;;;;;;;2.68;100.00;97408.97;5012852;28;20037;-79
2023/01/04 06:40:54;;;;;;;22.08;8.55;;;;;;;2.78;100.00;97407.28;5006232;28;20498;-80
2023/01/04 06:43:23;;;;;;;12.77;7.55;;;;;;;2.83;100.00;97410.06;4992710;28;20136;-78
2023/01/04 06:45:49;;;;;;;11.57;6.95;;;;;;;2.93;100.00;97405.91;4992705;28;20073;-79
2023/01/04 06:48:23;;;;;;;23.40;8.88;;;;;;;2.98;100.00;97396.03;4996604;28;20444;-80
2023/01/04 06:50:49;;;;;;;13.70;6.95;;;;;;;3.05;100.00;97402.06;4992854;28;20670;-79
2023/01/04 06:53:16;;;;;;;20.27;7.57;;;;;;;3.10;100.00;97393.28;4992456;28;20500;-80
2023/01/04 06:55:46;;;;;;;26.35;7.60;;;;;;;3.15;100.00;97390.66;4993004;28;20045;-79
2023/01/04 06:58:14;;;;;;;19.65;7.30;;;;;;;3.10;100.00;97380.63;4993471;28;20050;-79
2023/01/04 07:00:40;;;;;;;21.17;6.63;;;;;;;3.01;100.00;97367.81;4994200;28;20050;-79
2023/01/04 07:03:07;;;;;;;15.18;6.53;;;;;;;2.87;100.00;97373.53;4994876;28;20112;-78
2023/01/04 07:05:33;;;;;;;17.85;6.93;;;;;;;2.80;100.00;97372.88;5004615;28;20489;-79
2023/01/04 07:08:01;;;;;;;9.75;6.20;;;;;;;2.75;100.00;97375.47;4994572;28;20054;-79
2023/01/04 07:10:27;;;;;;;18.75;6.15;;;;;;;2.78;100.00;97374.19;5006288;28;20069;-79
2023/01/04 07:12:54;;;;;;;11.48;6.55;;;;;;;2.75;100.00;97370.09;4998358;28;20062;-79
2023/01/04 07:15:22;;;;;;;8.50;5.60;;;;;;;2.76;100.00;97368.22;4999949;28;20053;-79
2023/01/04 07:17:49;;;;;;;7.70;4.93;;;;;;;2.72;100.00;97369.78;4998315;28;20058;-79
2023/01/04 07:20:16;;;;;;;35.78;7.60;;;;;;;2.67;100.00;97370.50;4996436;28;20110;-79
2023/01/04 07:22:42;;;;;;;24.33;7.15;;;;;;;2.61;100.00;97368.78;4995751;28;20042;-80
2023/01/04 07:25:09;;;;;;;18.80;7.75;;;;;;;2.55;100.00;97364.34;4997904;28;20042;-79
2023/01/04 07:27:36;;;;;;;26.17;7.40;;;;;;;2.50;100.00;97353.50;5007690;28;20046;-79
2023/01/04 07:30:02;;;;;;;21.85;6.43;;;;;;;2.45;100.00;97359.59;4992487;28;20053;-79
2023/01/04 07:32:31;;;;;;;19.23;6.63;;;;;;;2.45;100.00;97358.78;4997914;28;20053;-79
2023/01/04 07:34:58;;;;;;;22.83;6.53;;;;;;;2.44;100.00;97357.97;4992331;28;20418;-79
2023/01/04 07:37:24;;;;;;;8.35;5.32;;;;;;;2.43;100.00;97355.53;4993251;28;20090;-79
2023/01/04 07:39:51;;;;;;;8.98;5.40;;;;;;;2.43;100.00;97360.91;4993739;28;20043;-80
2023/01/04 07:42:19;;;;;;;12.10;5.78;;;;;;;2.38;100.00;97363.50;4992915;28;20057;-80
2023/01/04 07:44:45;;;;;;;8.35;5.35;;;;;;;2.45;100.00;97359.59;5002793;28;20234;-80
2023/01/04 07:47:12;;;;;;;12.65;5.97;;;;;;;2.52;100.00;97354.09;5002270;28;20052;-80
2023/01/04 07:49:39;;;;;;;7.90;5.20;;;;;;;2.58;100.00;97356.63;4989002;28;20042;-79
2023/01/04 07:52:06;;;;;;;8.75;5.07;;;;;;;2.66;100.00;97355.41;4996827;28;20058;-79
2023/01/04 07:54:32;;;;;;;9.13;5.47;;;;;;;2.75;100.00;97358.50;5003740;28;20046;-78
2023/01/04 07:57:00;;;;;;;11.85;6.00;;;;;;;2.85;100.00;97361.38;5008128;28;20057;-79
2023/01/04 07:59:26;;;;;;;8.10;5.10;;;;;;;3.02;100.00;97353.31;5006565;28;20046;-79
2023/01/04 08:01:53;;;;;;;9.38;6.00;;;;;;;3.11;100.00;97341.06;4996944;28;20058;-78
2023/01/04 08:04:23;;;;;;;8.35;5.68;;;;;;;3.30;100.00;97338.94;5005764;28;20049;-79
2023/01/04 08:06:51;;;;;;;11.55;6.28;;;;;;;3.52;100.00;97325.50;5005296;28;20061;-79
2023/01/04 08:09:18;;;;;;;11.70;6.53;;;;;;;3.81;100.00;97318.91;5006248;28;20047;-79
2023/01/04 08:11:45;;;;;;;12.75;6.47;;;;;;;4.27;100.00;97324.78;5005752;28;20046;-79
2023/01/04 08:14:12;;;;;;;8.95;5.13;;;;;;;5.09;100.00;97336.31;5007717;28;20057;-79
2023/01/04 08:16:40;;;;;;;10.88;5.22;;;;;;;5.92;95.38;97331.97;5006846;28;20053;-79
2023/01/04 08:19:11;;;;;;;6.85;3.45;;;;;;;6.46;88.07;97325.38;5001532;28;20050;-80
2023/01/04 08:21:38;;;;;;;12.13;4.18;;;;;;;7.26;85.11;97323.00;4996112;28;20042;-78
2023/01/04 08:24:07;;;;;;;12.00;3.10;;;;;;;7.43;83.19;97318.06;4995604;28;20042;-79
2023/01/04 08:26:33;;;;;;;27.52;4.70;;;;;;;7.18;81.74;97320.81;4995650;28;20042;-78
2023/01/04 08:29:00;;;;;;;23.00;3.80;;;;;;;6.86;82.62;97324.63;4995807;28;20554;-78
2023/01/04 08:31:28;;;;;;;24.15;3.83;;;;;;;6.61;84.39;97311.06;4996075;28;20050;-79
2023/01/04 08:33:56;;;;;;;10.20;3.05;;;;;;;6.43;85.30;97321.31;4988286;28;19921;-79
2023/01/04 08:36:25;;;;;;;10.90;3.05;;;;;;;6.22;86.71;97319.66;4994643;28;20131;-79
2023/01/04 08:38:54;;;;;;;10.88;3.65;;;;;;;6.09;87.75;97325.53;4994420;28;20050;-80
2023/01/04 08:41:21;;;;;;;13.80;3.55;;;;;;;5.37;92.22;97325.16;4994260;28;20046;-79
2023/01/04 08:43:48;;;;;;;11.05;3.10;;;;;;;5.60;92.06;97323.16;4995279;28;20050;-80
2023/01/04 08:46:15;;;;;;;12.90;3.67;;;;;;;5.74;91.75;97326.97;4994740;28;20053;-79
2023/01/04 08:48:42;;;;;;;21.58;4.15;;;;;;;5.48;92.38;97326.88;4994940;28;20410;-79
2023/01/04 08:51:10;;;;;;;17.88;3.78;;;;;;;5.61;92.74;97327.47;4995090;28;20046;-79
2023/01/04 08:53:37;;;;;;;22.85;4.40;;;;;;;5.83;90.95;97322.72;4994499;28;20049;-79
2023/01/04 08:56:05;;;;;;;6.38;2.85;;;;;;;6.04;90.00;97315.53;4994783;28;20050;-79
2023/01/04 08:58:35;;;;;;;13.23;3.13;;;;;;;5.94;88.90;97320.88;4995571;28;20072;-80
2023/01/04 09:01:02;;;;;;;14.32;3.58;;;;;;;5.93;89.83;97317.38;4996355;28;20101;-79
2023/01/04 09:03:29;;;;;;;14.55;3.70;;;;;;;5.92;91.57;97310.34;5013489;28;20042;-80
2023/01/04 09:06:03;;;;;;;15.60;3.13;;;;;;;6.03;89.62;97310.38;5022691;28;20049;-79
2023/01/04 09:08:31;;;;;;;12.52;2.85;;;;;;;6.20;88.66;97305.56;5022962;28;20077;-80
2023/01/04 09:10:58;;;;;;;10.85;2.65;;;;;;;5.91;89.01;97302.47;5018059;28;20072;-79
2023/01/04 09:13:24;;;;;;;21.65;3.38;;;;;;;5.73;90.43;97296.44;5018528;28;20485;-78
2023/01/04 09:15:52;;;;;;;25.88;3.78;;;;;;;5.71;90.63;97306.72;5008628;28;20081;-79
2023/01/04 09:18:19;;;;;;;11.77;2.78;;;;;;;5.59;91.10;97310.72;5005222;28;20056;-79
2023/01/04 09:20:45;;;;;;;20.85;3.55;;;;;;;5.54;92.01;97308.00;5001538;28;20070;-79
2023/01/04 09:23:12;;;;;;;18.00;3.60;;;;;;;5.46;92.93;97299.28;5000331;28;20042;-79
2023/01/04 09:25:39;;;;;;;23.83;4.03;;;;;;;5.67;92.94;97296.69;5001454;28;20486;-81
2023/01/04 09:28:06;;;;;;;15.90;3.00;;;;;;;5.82;91.20;97294.06;5002155;28;20050;-80
2023/01/04 09:30:32;;;;;;;27.80;3.80;;;;;;;6.00;90.42;97285.53;5001933;28;20073;-81
2023/01/04 09:33:00;;;;;;;15.23;3.30;;;;;;;6.19;89.33;97282.31;5003212;28;20042;-80
2023/01/04 09:35:26;;;;;;;14.30;3.53;;;;;;;6.41;89.33;97273.97;5003313;28;20053;-80
2023/01/04 09:37:53;;;;;;;12.75;2.80;;;;;;;6.42;88.02;97287.25;4995011;28;20046;-80
2023/01/04 09:40:25;;;;;;;19.38;3.85;;;;;;;6.62;87.31;97285.63;5001401;28;20050;-80
2023/01/04 09:42:52;;;;;;;21.98;3.60;;;;;;;6.72;86.42;97277.50;5003272;28;20054;-81
2023/01/04 09:45:22;;;;;;;9.52;2.72;;;;;;;6.78;86.23;97271.00;5003524;28;20425;-80
2023/01/04 09:47:54;;;;;;;19.65;3.53;;;;;;;7.00;85.36;97270.75;5005355;28;20053;-80
2023/01/04 09:50:25;;;;;;;19.13;3.30;;;;;;;6.77;85.86;97277.50;5004119;28;20046;-81
2023/01/04 09:53:00;;;;;;;16.23;3.20;;;;;;;6.66;85.47;97273.19;4994311;28;20057;-81
2023/01/04 09:55:31;;;;;;;16.70;3.40;;;;;;;6.45;85.37;97265.03;5009529;28;20069;-80
2023/01/04 09:58:02;;;;;;;15.20;2.88;;;;;;;6.45;86.33;97264.22;4985711;28;20069;-80
2023/01/04 10:00:33;;;;;;;9.40;2.50;;;;;;;6.52;86.62;97276.44;4994039;28;20043;-81
2023/01/04 10:03:05;;;;;;;19.23;3.60;;;;;;;6.70;86.08;97272.38;4998008;28;20046;-81
2023/01/04 10:05:34;;;;;;;17.65;3.20;;;;;;;6.74;85.17;97267.22;4998529;28;20042;-80
2023/01/04 10:08:01;;;;;;;16.00;2.85;;;;;;;6.87;84.19;97272.09;4996396;28;20108;-81
2023/01/04 10:10:44;;;;;;;6.30;1.85;;;;;;;6.84;84.29;97267.22;5003849;28;20038;-79
2023/01/04 10:13:22;;;;;;;14.63;2.95;;;;;;;6.92;83.90;97263.97;4992327;28;20081;-81
2023/01/04 10:15:55;;;;;;;3.45;1.92;;;;;;;7.00;83.13;97251.78;4993287;28;20789;-81
2023/01/04 10:18:31;;;;;;;18.95;2.42;;;;;;;7.11;82.87;97255.28;5007304;28;22371;-78
2023/01/04 10:21:13;;;;;;;21.58;3.03;;;;;;;7.20;82.18;97253.63;5004328;28;20062;-81
2023/01/04 10:23:58;;;;;;;25.13;3.17;;;;;;;7.31;81.85;97241.72;5003740;28;20050;-78
2023/01/04 10:26:29;;;;;;;21.08;2.80;;;;;;;7.35;81.65;97240.03;4992314;28;20046;-80
2023/01/04 10:29:14;;;;;;;19.17;2.63;;;;;;;7.34;80.22;97227.59;4992287;28;20042;-80
2023/01/04 10:31:47;;;;;;;23.10;3.13;;;;;;;7.40;81.36;97215.66;5002215;28;20042;-80
2023/01/04 10:34:23;;;;;;;18.43;2.83;;;;;;;7.58;81.03;97216.94;5010625;28;20401;-77
2023/01/04 10:36:55;;;;;;;19.77;3.40;;;;;;;7.79;79.55;97212.25;5012608;28;20417;-81
2023/01/04 10:39:27;;;;;;;2.97;1.67;;;;;;;8.08;78.28;97201.50;5013133;28;20054;-78
2023/01/04 10:41:58;;;;;;;18.88;2.70;;;;;;;8.27;76.73;97198.94;5017256;28;20045;-81
2023/01/04 10:44:34;;;;;;;18.15;2.70;;;;;;;8.44;76.01;97198.56;5016863;28;20057;-79
2023/01/04 10:47:08;;;;;;;17.35;3.10;;;;;;;8.65;75.40;97182.91;4991539;28;20065;-81
2023/01/04 10:49:43;;;;;;;31.77;3.40;;;;;;;8.48;75.13;97180.63;4996695;28;20398;-80
2023/01/04 10:52:16;;;;;;;16.92;2.45;;;;;;;8.48;75.94;97181.44;4995239;28;20092;-80
2023/01/04 10:54:50;;;;;;;28.05;3.33;;;;;;;8.30;76.44;97182.06;5008950;28;20056;-79
2023/01/04 10:57:21;;;;;;;19.58;2.80;;;;;;;8.33;76.98;97173.38;5013919;28;20049;-79
2023/01/04 10:59:53;;;;;;;23.10;2.90;;;;;;;8.08;76.93;97172.47;5015597;28;20164;-80
2023/01/04 11:02:27;;;;;;;20.13;2.77;;;;;;;7.96;77.26;97161.16;5013765;28;20057;-80
2023/01/04 11:05:01;;;;;;;32.15;3.22;;;;;;;7.96;77.82;97155.72;4990023;28;20425;-80
2023/01/04 11:07:37;;;;;;;22.50;2.72;;;;;;;7.93;77.04;97159.00;4994387;28;20049;-80
2023/01/04 11:10:09;;;;;;;23.95;2.90;;;;;;;7.86;77.17;97155.78;4995391;28;20078;-79
2023/01/04 11:12:35;;;;;;;29.25;3.08;;;;;;;7.87;76.86;97154.69;4998304;28;20042;-79
2023/01/04 11:15:03;;;;;;;20.08;2.75;;;;;;;7.89;77.46;97141.69;4993411;28;20050;-79
2023/01/04 11:17:31;;;;;;;23.60;2.67;;;;;;;7.87;78.08;97143.03;4993893;28;20046;-80
2023/01/04 11:19:58;;;;;;;7.68;1.83;;;;;;;7.85;78.08;97141.44;4993776;28;20046;-80
2023/01/04 11:22:34;;;;;;;13.27;2.20;;;;;;;7.89;75.88;97140.88;4992195;28;20042;-79
2023/01/04 11:25:04;;;;;;;29.95;3.47;;;;;;;7.92;75.31;97146.53;4992218;28;20493;-78
2023/01/04 11:27:36;;;;;;;20.45;2.97;;;;;;;8.01;74.05;97134.00;4996665;28;20046;-79
2023/01/04 11:30:13;;;;;;;17.30;2.70;;;;;;;8.06;72.97;97142.09;5013334;28;20052;-79
2023/01/04 11:32:44;;;;;;;20.50;2.58;;;;;;;8.14;72.30;97142.59;5026211;28;20042;-79
2023/01/04 11:35:11;;;;;;;13.63;2.22;;;;;;;8.17;72.32;97142.03;5018971;28;20050;-80
2023/01/04 11:37:40;;;;;;;22.00;2.78;;;;;;;8.25;69.73;97138.72;5012407;28;20053;-81
2023/01/04 11:40:12;;;;;;;11.75;1.90;;;;;;;8.33;70.17;97135.38;5010663;28;20138;-79
2023/01/04 11:42:39;;;;;;;20.02;2.65;;;;;;;8.35;69.82;97128.59;4998040;28;20057;-80
2023/01/04 11:45:07;;;;;;;8.65;1.55;;;;;;;8.45;68.86;97126.91;4991969;28;20054;-78
2023/01/04 11:47:33;;;;;;;18.90;2.78;;;;;;;8.38;68.79;97131.84;4994024;28;20070;-81
2023/01/04 11:50:00;;;;;;;14.23;2.35;;;;;;;8.37;68.90;97125.63;4995038;28;20046;-80
2023/01/04 11:52:30;;;;;;;12.73;1.95;;;;;;;8.36;69.17;97129.44;4995987;28;20494;-79
2023/01/04 11:55:16;;;;;;;24.52;2.90;;;;;;;8.39;68.98;97128.03;4997218;28;20137;-81
2023/01/04 11:57:42;;;;;;;13.30;1.90;;;;;;;8.42;68.61;97114.72;4997339;28;20038;-80
2023/01/04 12:00:13;;;;;;;13.15;2.13;;;;;;;8.42;68.55;97116.63;4991816;28;20555;-80
2023/01/04 12:02:40;;;;;;;18.67;2.38;;;;;;;8.41;68.86;97113.09;4994015;28;20047;-81
2023/01/04 12:05:17;;;;;;;28.00;3.40;;;;;;;8.56;68.82;97102.09;4993537;28;20077;-80
2023/01/04 12:07:43;;;;;;;19.00;2.60;;;;;;;8.53;67.84;97099.94;4992408;28;20042;-81
2023/01/04 12:10:22;;;;;;;13.00;2.08;;;;;;;8.65;68.46;97104.19;4992520;28;20054;-80
2023/01/04 12:12:49;;;;;;;18.40;2.92;;;;;;;8.60;68.20;97097.69;4993347;28;20056;-82
2023/01/04 12:15:22;;;;;;;17.95;2.47;;;;;;;8.54;67.28;97103.47;4993694;28;20046;-79
2023/01/04 12:17:53;;;;;;;12.93;1.90;;;;;;;8.56;66.24;97096.69;4991990;28;20061;-81
2023/01/04 12:20:21;;;;;;;8.07;1.60;;;;;;;8.57;66.15;97092.84;4992070;28;20510;-80
2023/01/04 12:22:47;;;;;;;13.80;2.22;;;;;;;8.54;66.61;97088.00;4992923;28;20042;-80
2023/01/04 12:25:30;;;;;;;11.88;2.08;;;;;;;8.58;66.73;97096.38;4992680;28;20050;-81